createdAt,value
2022-08-13T00:00:44.676Z,5.70
2022-08-13T00:04:01.415Z,5.38
2022-08-13T00:06:14.142Z,6.00
2022-08-13T00:08:50.447Z,5.43
2022-08-13T00:11:59.656Z,5.57
2022-08-13T00:14:35.618Z,5.65
2022-08-13T00:17:11.242Z,5.78
2022-08-13T00:19:41.256Z,4.95
2022-08-13T00:22:29.088Z,5.78
2022-08-13T00:25:09.552Z,5.43
2022-08-13T00:27:57.826Z,7.75
2022-08-13T00:30:35.634Z,9.30
2022-08-13T00:33:14.614Z,6.90
2022-08-13T00:35:44.441Z,5.97
2022-08-13T00:38:20.602Z,6.00
2022-08-13T00:40:56.700Z,5.80
2022-08-13T00:43:26.267Z,5.70
2022-08-13T00:45:56.509Z,6.28
2022-08-13T00:48:46.824Z,5.45
2022-08-13T00:51:56.559Z,5.88
2022-08-13T00:54:17.477Z,5.95
2022-08-13T00:56:47.317Z,5.47
2022-08-13T00:59:16.088Z,5.43
2022-08-13T01:01:48.118Z,6.65
2022-08-13T01:04:24.630Z,6.15
2022-08-13T01:06:57.817Z,6.28
2022-08-13T01:10:16.887Z,6.28
2022-08-13T01:12:25.164Z,6.30
2022-08-13T01:14:57.164Z,6.50
2022-08-13T01:17:29.792Z,5.88
2022-08-13T01:20:11.782Z,6.18
2022-08-13T01:22:40.660Z,6.38
2022-08-13T01:25:14.182Z,6.50
2022-08-13T01:27:43.837Z,6.72
2022-08-13T01:30:16.574Z,5.93
2022-08-13T01:32:53.993Z,6.75
2022-08-13T01:35:25.898Z,6.35
2022-08-13T01:37:59.625Z,6.40
2022-08-13T01:40:35.767Z,7.13
2022-08-13T01:43:21.759Z,6.75
2022-08-13T01:45:52.937Z,6.40
2022-08-13T01:48:42.855Z,7.43
2022-08-13T01:51:40.146Z,6.57
2022-08-13T01:54:38.237Z,8.30
2022-08-13T01:57:04.261Z,14.73
2022-08-13T02:00:01.778Z,15.77
2022-08-13T02:02:35.060Z,15.98
2022-08-13T02:06:19.566Z,10.88
2022-08-13T02:08:05.889Z,10.40
2022-08-13T02:10:38.754Z,8.13
2022-08-13T02:13:16.514Z,8.45
2022-08-13T02:15:51.500Z,7.93
2022-08-13T02:18:22.563Z,9.73
2022-08-13T02:20:54.832Z,9.23
2022-08-13T02:23:29.841Z,9.88
2022-08-13T02:26:19.330Z,8.15
2022-08-13T02:28:49.698Z,7.40
2022-08-13T02:31:25.807Z,7.93
2022-08-13T02:34:14.074Z,7.38
2022-08-13T02:37:19.085Z,7.93
2022-08-13T02:39:43.371Z,7.65
2022-08-13T02:42:16.144Z,7.30
2022-08-13T02:44:51.449Z,8.27
2022-08-13T02:47:28.157Z,7.95
2022-08-13T02:50:11.099Z,10.52
2022-08-13T02:52:50.284Z,11.30
2022-08-13T02:55:34.587Z,11.18
2022-08-13T02:58:05.547Z,9.98
2022-08-13T03:00:35.134Z,11.18
2022-08-13T03:03:10.432Z,8.10
2022-08-13T03:05:43.267Z,8.38
2022-08-13T03:08:39.003Z,7.90
2022-08-13T03:11:13.739Z,9.10
2022-08-13T03:13:46.079Z,9.25
2022-08-13T03:16:23.862Z,8.88
2022-08-13T03:18:54.727Z,9.65
2022-08-13T03:21:41.290Z,10.60
2022-08-13T03:24:21.415Z,13.10
2022-08-13T03:26:58.406Z,17.10
2022-08-13T03:29:58.183Z,14.13
2022-08-13T03:32:16.042Z,14.25
2022-08-13T03:34:46.212Z,13.88
2022-08-13T03:37:14.330Z,12.77
2022-08-13T03:39:43.681Z,13.55
2022-08-13T03:42:13.135Z,12.00
2022-08-13T03:44:47.580Z,12.05
2022-08-13T03:47:29.883Z,11.77
2022-08-13T03:50:01.376Z,10.18
2022-08-13T03:52:35.702Z,10.68
2022-08-13T03:55:12.014Z,11.30
2022-08-13T03:57:56.506Z,10.15
2022-08-13T04:00:31.321Z,11.85
2022-08-13T04:03:02.289Z,10.55
2022-08-13T04:05:41.442Z,10.55
2022-08-13T04:08:22.141Z,11.07
2022-08-13T04:10:51.895Z,10.85
2022-08-13T04:14:04.189Z,9.73
2022-08-13T04:16:30.291Z,10.32
2022-08-13T04:19:04.561Z,10.75
2022-08-13T04:21:34.313Z,10.52
2022-08-13T04:24:12.026Z,10.55
2022-08-13T04:26:47.524Z,10.32
2022-08-13T04:29:18.202Z,10.57
2022-08-13T04:31:51.078Z,11.07
2022-08-13T04:34:32.326Z,12.07
2022-08-13T04:37:09.657Z,11.70
2022-08-13T04:40:05.850Z,10.43
2022-08-13T04:42:33.297Z,10.27
2022-08-13T04:45:11.872Z,10.80
2022-08-13T04:47:45.164Z,11.70
2022-08-13T04:50:16.779Z,10.40
2022-08-13T04:52:49.442Z,10.95
2022-08-13T04:55:19.427Z,11.88
2022-08-13T04:57:54.987Z,10.63
2022-08-13T05:00:35.760Z,10.52
2022-08-13T05:03:43.663Z,11.82
2022-08-13T05:06:20.679Z,11.48
2022-08-13T05:08:55.624Z,11.18
2022-08-13T05:11:23.967Z,11.98
2022-08-13T05:13:53.343Z,13.95
2022-08-13T05:16:29.159Z,14.82
2022-08-13T05:18:57.809Z,16.10
2022-08-13T05:21:57.349Z,21.80
2022-08-13T05:26:17.695Z,22.38
2022-08-13T05:27:09.374Z,17.85
2022-08-13T05:29:51.812Z,14.32
2022-08-13T05:32:36.224Z,14.13
2022-08-13T05:35:14.625Z,13.05
2022-08-13T05:38:12.008Z,15.35
2022-08-13T05:40:36.898Z,13.93
2022-08-13T05:43:27.386Z,13.93
2022-08-13T05:46:06.265Z,14.75
2022-08-13T05:48:41.049Z,14.57
2022-08-13T05:51:11.646Z,16.10
2022-08-13T05:56:04.533Z,14.52
2022-08-13T05:56:34.383Z,14.30
2022-08-13T05:59:03.996Z,14.13
2022-08-13T06:01:57.094Z,13.38
2022-08-13T06:04:37.430Z,13.98
2022-08-13T06:07:11.695Z,13.32
2022-08-13T06:09:40.037Z,12.80
2022-08-13T06:12:30.442Z,11.43
2022-08-13T06:14:58.969Z,12.38
2022-08-13T06:17:29.850Z,12.23
2022-08-13T06:20:06.627Z,11.25
2022-08-13T06:22:42.215Z,11.27
2022-08-13T06:25:12.544Z,11.18
2022-08-13T06:27:55.987Z,11.40
2022-08-13T06:30:29.772Z,10.90
2022-08-13T06:33:58.007Z,11.55
2022-08-13T06:35:59.872Z,10.68
2022-08-13T06:38:36.203Z,12.82
2022-08-13T06:41:07.259Z,11.75
2022-08-13T06:43:47.221Z,13.73
2022-08-13T06:46:27.340Z,12.30
2022-08-13T06:48:59.370Z,11.20
2022-08-13T06:51:31.106Z,11.55
2022-08-13T06:54:23.553Z,10.98
2022-08-13T06:57:07.615Z,10.07
2022-08-13T07:00:10.120Z,10.80
2022-08-13T07:02:37.691Z,11.55
2022-08-13T07:05:07.506Z,10.48
2022-08-13T07:07:47.540Z,10.55
2022-08-13T07:10:16.400Z,10.75
2022-08-13T07:12:46.758Z,10.70
2022-08-13T07:15:38.926Z,10.02
2022-08-13T07:18:07.652Z,10.50
2022-08-13T07:20:38.106Z,9.05
2022-08-13T07:24:37.278Z,10.15
2022-08-13T07:25:59.930Z,9.93
2022-08-13T07:28:46.364Z,9.07
2022-08-13T07:31:26.394Z,8.73
2022-08-13T07:34:14.116Z,7.65
2022-08-13T07:36:45.593Z,8.30
2022-08-13T07:39:26.083Z,7.72
2022-08-13T07:42:03.359Z,8.55
2022-08-13T07:44:37.685Z,7.78
2022-08-13T07:47:23.401Z,8.65
2022-08-13T07:49:59.020Z,7.10
2022-08-13T07:52:31.699Z,7.05
2022-08-13T07:55:02.750Z,7.05
2022-08-13T07:57:37.574Z,8.07
2022-08-13T08:00:22.574Z,7.70
2022-08-13T08:03:04.957Z,6.53
2022-08-13T08:05:40.278Z,7.22
2022-08-13T08:08:19.280Z,6.68
2022-08-13T08:10:57.035Z,6.38
2022-08-13T08:13:27.660Z,6.55
2022-08-13T08:16:03.249Z,6.60
2022-08-13T08:19:25.001Z,6.20
2022-08-13T08:21:46.596Z,5.85
2022-08-13T08:24:29.702Z,6.60
2022-08-13T08:27:02.068Z,6.45
2022-08-13T08:29:55.658Z,6.03
2022-08-13T08:32:22.620Z,6.28
2022-08-13T08:35:03.419Z,6.07
2022-08-13T08:37:58.630Z,6.10
2022-08-13T08:40:56.538Z,6.10
2022-08-13T08:43:28.434Z,5.85
2022-08-13T08:46:10.641Z,5.97
2022-08-13T08:48:41.524Z,5.40
2022-08-13T08:51:18.744Z,5.80
2022-08-13T08:54:12.884Z,5.35
2022-08-13T08:56:41.512Z,5.57
2022-08-13T08:59:30.676Z,5.32
2022-08-13T09:02:02.525Z,5.72
2022-08-13T09:04:46.395Z,5.90
2022-08-13T09:07:22.181Z,6.10
2022-08-13T09:09:57.689Z,5.47
2022-08-13T09:12:28.964Z,6.82
2022-08-13T09:14:59.747Z,5.80
2022-08-13T09:17:36.283Z,5.63
2022-08-13T09:20:17.608Z,6.30
2022-08-13T09:22:53.560Z,5.93
2022-08-13T09:25:26.432Z,5.78
2022-08-13T09:28:01.330Z,6.32
2022-08-13T09:30:43.107Z,6.07
2022-08-13T09:33:49.216Z,6.20
2022-08-13T09:36:01.475Z,5.72
2022-08-13T09:38:31.319Z,5.95
2022-08-13T09:41:17.408Z,5.75
2022-08-13T09:43:52.844Z,5.85
2022-08-13T09:46:28.547Z,6.32
2022-08-13T09:49:00.232Z,5.82
2022-08-13T09:51:56.605Z,6.13
2022-08-13T09:54:28.579Z,6.43
2022-08-13T09:57:00.841Z,7.00
2022-08-13T09:59:36.371Z,6.10
2022-08-13T10:02:16.550Z,5.72
2022-08-13T10:04:47.569Z,6.75
2022-08-13T10:07:20.552Z,6.50
2022-08-13T10:10:22.096Z,7.07
2022-08-13T10:12:40.096Z,7.20
2022-08-13T10:15:23.454Z,6.60
2022-08-13T10:18:01.676Z,7.50
2022-08-13T10:20:36.691Z,7.70
2022-08-13T10:23:07.737Z,7.57
2022-08-13T10:25:48.704Z,8.45
2022-08-13T10:28:34.211Z,8.23
2022-08-13T10:31:49.998Z,8.27
2022-08-13T10:33:58.117Z,9.70
2022-08-13T10:36:33.870Z,10.18
2022-08-13T10:39:10.017Z,9.25
2022-08-13T10:42:03.319Z,8.95
2022-08-13T10:44:32.453Z,9.27
2022-08-13T10:47:03.928Z,9.10
2022-08-13T10:49:33.836Z,9.93
2022-08-13T10:52:05.196Z,10.15
2022-08-13T10:54:36.524Z,9.73
2022-08-13T10:57:12.607Z,9.55
2022-08-13T10:59:46.605Z,10.52
2022-08-13T11:02:20.025Z,9.02
2022-08-13T11:04:50.898Z,9.32
2022-08-13T11:07:23.316Z,9.68
2022-08-13T11:09:53.268Z,7.68
2022-08-13T11:12:23.842Z,8.68
2022-08-13T11:14:54.575Z,8.57
2022-08-13T11:17:51.208Z,9.18
2022-08-13T11:20:19.643Z,9.48
2022-08-13T11:22:50.729Z,8.77
2022-08-13T11:25:56.586Z,8.73
2022-08-13T11:28:19.281Z,8.70
2022-08-13T11:30:51.142Z,9.32
2022-08-13T11:34:06.421Z,9.57
2022-08-13T11:36:14.932Z,8.82
2022-08-13T11:38:43.137Z,8.57
2022-08-13T11:41:18.732Z,8.38
2022-08-13T11:43:51.228Z,8.00
2022-08-13T11:46:26.909Z,7.20
2022-08-13T11:49:09.868Z,7.55
2022-08-13T11:51:49.125Z,8.25
2022-08-13T11:54:31.223Z,7.70
2022-08-13T11:57:13.199Z,8.65
2022-08-13T11:59:54.753Z,8.32
2022-08-13T12:02:32.475Z,8.20
2022-08-13T12:05:10.226Z,8.50
2022-08-13T12:07:45.301Z,7.40
2022-08-13T12:10:38.953Z,8.18
2022-08-13T12:13:05.881Z,8.68
2022-08-13T12:16:07.280Z,8.40
2022-08-13T12:18:21.784Z,8.55
2022-08-13T12:20:50.373Z,7.88
2022-08-13T12:23:21.394Z,9.40
2022-08-13T12:26:02.052Z,7.35
2022-08-13T12:28:32.049Z,9.73
2022-08-13T12:31:05.868Z,7.88
2022-08-13T12:33:39.778Z,9.02
2022-08-13T12:36:16.742Z,13.00
2022-08-13T12:38:59.426Z,9.55
2022-08-13T12:41:38.575Z,9.55
2022-08-13T12:45:05.878Z,9.05
2022-08-13T12:47:04.157Z,10.10
2022-08-13T12:50:00.641Z,8.38
2022-08-13T12:52:22.703Z,6.28
2022-08-13T12:55:08.588Z,6.95
2022-08-13T12:58:04.889Z,6.88
2022-08-13T13:00:33.359Z,6.90
2022-08-13T13:03:03.056Z,7.13
2022-08-13T13:05:35.182Z,7.20
2022-08-13T13:08:30.639Z,6.70
2022-08-13T13:11:13.523Z,6.68
2022-08-13T13:13:53.805Z,7.07
2022-08-13T13:16:34.189Z,6.45
2022-08-13T13:19:15.361Z,7.00
2022-08-13T13:21:49.884Z,11.23
2022-08-13T13:24:23.522Z,7.43
2022-08-13T13:27:00.079Z,7.38
2022-08-13T13:29:38.097Z,7.20
2022-08-13T13:32:38.985Z,7.80
2022-08-13T13:35:10.216Z,9.95
2022-08-13T13:38:06.357Z,9.93
2022-08-13T13:40:44.213Z,6.03
2022-08-13T13:43:24.519Z,6.20
2022-08-13T13:46:01.400Z,6.18
2022-08-13T13:48:42.047Z,6.25
2022-08-13T13:51:15.134Z,5.30
2022-08-13T13:54:17.508Z,5.18
2022-08-13T13:56:32.479Z,4.78
2022-08-13T13:59:01.937Z,5.22
2022-08-13T14:01:49.965Z,4.40
2022-08-13T14:04:20.915Z,4.68
2022-08-13T14:06:49.907Z,4.68
2022-08-13T14:09:21.286Z,4.32
2022-08-13T14:11:52.920Z,4.85
2022-08-13T14:14:21.775Z,4.80
2022-08-13T14:16:53.919Z,4.97
2022-08-13T14:19:54.033Z,5.20
2022-08-13T14:22:11.279Z,5.03
2022-08-13T14:24:43.253Z,5.13
2022-08-13T14:27:19.216Z,4.75
2022-08-13T14:29:52.860Z,4.88
2022-08-13T14:32:28.550Z,5.28
2022-08-13T14:35:05.376Z,4.82
2022-08-13T14:37:36.420Z,5.10
2022-08-13T14:40:10.574Z,4.78
2022-08-13T14:43:18.457Z,5.50
2022-08-13T14:45:57.793Z,5.07
2022-08-13T14:48:30.577Z,5.25
2022-08-13T14:51:19.619Z,5.55
2022-08-13T14:53:56.443Z,5.35
2022-08-13T14:56:31.638Z,5.13
2022-08-13T14:59:02.186Z,5.03
2022-08-13T15:01:30.855Z,5.18
2022-08-13T15:04:07.272Z,5.13
2022-08-13T15:06:39.630Z,5.78
2022-08-13T15:09:13.241Z,5.18
2022-08-13T15:11:49.491Z,5.95
2022-08-13T15:14:21.400Z,5.10
2022-08-13T15:16:49.209Z,5.28
2022-08-13T15:19:18.710Z,6.15
2022-08-13T15:21:50.918Z,6.25
2022-08-13T15:24:36.088Z,6.75
2022-08-13T15:27:11.811Z,5.88
2022-08-13T15:29:44.447Z,5.80
2022-08-13T15:32:16.612Z,6.90
2022-08-13T15:34:57.970Z,6.95
2022-08-13T15:37:43.307Z,6.00
2022-08-13T15:40:22.051Z,6.43
2022-08-13T15:42:58.688Z,5.75
2022-08-13T15:45:28.478Z,5.90
2022-08-13T15:47:58.096Z,5.50
2022-08-13T15:50:29.781Z,5.40
2022-08-13T15:52:58.703Z,5.43
2022-08-13T15:55:41.661Z,5.38
2022-08-13T15:58:09.976Z,5.25
2022-08-13T16:00:39.134Z,5.55
2022-08-13T16:03:12.257Z,5.55
2022-08-13T16:05:44.973Z,5.63
2022-08-13T16:08:15.050Z,5.25
2022-08-13T16:11:01.459Z,4.88
2022-08-13T16:13:33.598Z,5.72
2022-08-13T16:16:02.948Z,5.20
2022-08-13T16:18:36.403Z,5.25
2022-08-13T16:21:05.452Z,6.07
2022-08-13T16:23:58.625Z,5.32
2022-08-13T16:26:30.617Z,6.05
2022-08-13T16:29:00.576Z,5.53
2022-08-13T16:31:41.263Z,5.70
2022-08-13T16:34:10.234Z,6.05
2022-08-13T16:36:38.962Z,6.13
2022-08-13T16:39:08.149Z,6.30
2022-08-13T16:41:41.369Z,6.55
2022-08-13T16:44:36.305Z,7.30
2022-08-13T16:46:59.530Z,7.22
2022-08-13T16:49:28.181Z,11.18
2022-08-13T16:51:56.870Z,8.20
2022-08-13T16:54:38.852Z,9.55
2022-08-13T16:57:08.655Z,7.15
2022-08-13T16:59:47.737Z,7.22
2022-08-13T17:02:27.586Z,6.82
2022-08-13T17:05:18.328Z,6.30
2022-08-13T17:08:06.166Z,6.60
2022-08-13T17:10:36.999Z,11.40
2022-08-13T17:13:08.210Z,8.60
2022-08-13T17:15:41.046Z,7.13
2022-08-13T17:18:09.385Z,7.07
2022-08-13T17:20:37.592Z,6.22
2022-08-13T17:23:06.702Z,8.35
2022-08-13T17:25:35.544Z,8.40
2022-08-13T17:28:11.286Z,16.80
2022-08-13T17:30:39.723Z,22.55
2022-08-13T17:33:08.201Z,21.38
2022-08-13T17:35:56.465Z,20.08
2022-08-13T17:38:25.754Z,9.15
2022-08-13T17:40:54.951Z,7.25
2022-08-13T17:44:08.895Z,7.30
2022-08-13T17:46:11.080Z,13.80
2022-08-13T17:49:01.597Z,8.90
2022-08-13T17:51:32.042Z,10.30
2022-08-13T17:54:01.065Z,18.70
2022-08-13T17:56:30.635Z,16.05
2022-08-13T17:58:59.887Z,13.98
2022-08-13T18:01:35.631Z,14.43
2022-08-13T18:04:13.086Z,12.75
2022-08-13T18:06:50.479Z,10.57
2022-08-13T18:09:21.988Z,52.22
2022-08-13T18:12:10.177Z,20.58
2022-08-13T18:14:50.173Z,15.90
2022-08-13T18:18:13.987Z,15.07
2022-08-13T18:20:10.487Z,10.63
2022-08-13T18:22:40.824Z,9.93
2022-08-13T18:25:10.935Z,10.32
2022-08-13T18:28:14.880Z,10.23
2022-08-13T18:30:33.813Z,9.25
2022-08-13T18:33:11.913Z,10.18
2022-08-13T18:36:03.956Z,10.02
2022-08-13T18:38:35.036Z,9.35
2022-08-13T18:41:05.684Z,10.43
2022-08-13T18:43:35.208Z,65.93
2022-08-13T18:46:02.887Z,32.90
2022-08-13T18:48:33.664Z,11.13
2022-08-13T18:51:05.793Z,10.23
2022-08-13T18:53:53.994Z,10.23
2022-08-13T18:56:24.609Z,10.60
2022-08-13T18:58:53.598Z,10.43
2022-08-13T19:01:22.266Z,9.95
2022-08-13T19:04:00.022Z,10.80
2022-08-13T19:06:37.441Z,12.40
2022-08-13T19:09:09.280Z,11.07
2022-08-13T19:11:45.021Z,11.85
2022-08-13T19:14:20.960Z,11.20
2022-08-13T19:19:54.074Z,12.05
2022-08-13T19:22:19.651Z,11.43
2022-08-13T19:24:52.159Z,11.20
2022-08-13T19:27:34.864Z,11.40
2022-08-13T19:30:12.406Z,11.18
2022-08-13T19:32:43.049Z,11.38
2022-08-13T19:35:17.578Z,10.88
2022-08-13T19:37:54.771Z,11.00
2022-08-13T19:40:36.061Z,15.77
2022-08-13T19:43:10.114Z,13.73
2022-08-13T19:45:50.906Z,12.15
2022-08-13T19:48:38.498Z,13.40
2022-08-13T19:51:20.350Z,11.25
2022-08-13T19:53:57.925Z,11.02
2022-08-13T19:56:35.266Z,14.27
2022-08-13T19:59:15.786Z,10.68
2022-08-13T20:01:46.142Z,10.77
2022-08-13T20:04:17.527Z,11.57
2022-08-13T20:06:49.162Z,11.20
2022-08-13T20:09:18.800Z,11.35
2022-08-13T20:11:49.631Z,11.40
2022-08-13T20:14:19.622Z,10.35
2022-08-13T20:16:51.477Z,10.50
2022-08-13T20:19:58.235Z,10.38
2022-08-13T20:22:10.927Z,9.75
2022-08-13T20:25:48.636Z,9.38
2022-08-13T20:27:50.024Z,10.00
2022-08-13T20:30:35.577Z,9.93
2022-08-13T20:33:07.161Z,9.93
2022-08-13T20:35:35.606Z,9.63
2022-08-13T20:38:06.098Z,9.65
2022-08-13T20:40:34.150Z,10.80
2022-08-13T20:43:12.864Z,10.10
2022-08-13T20:45:53.062Z,10.07
2022-08-13T20:48:30.921Z,10.25
2022-08-13T20:51:02.559Z,9.75
2022-08-13T20:53:33.475Z,9.32
2022-08-13T20:56:06.425Z,10.73
2022-08-13T21:00:44.934Z,11.02
2022-08-13T21:01:24.833Z,11.05
2022-08-13T21:03:59.268Z,10.98
2022-08-13T21:06:29.048Z,11.57
2022-08-13T21:09:00.237Z,9.80
2022-08-13T21:11:41.269Z,11.48
2022-08-13T21:14:15.605Z,10.75
2022-08-13T21:16:45.937Z,12.02
2022-08-13T21:19:39.125Z,11.48
2022-08-13T21:22:05.266Z,10.93
2022-08-13T21:24:38.904Z,11.23
2022-08-13T21:27:24.105Z,10.05
2022-08-13T21:30:04.436Z,12.10
2022-08-13T21:32:56.062Z,11.55
2022-08-13T21:35:26.838Z,10.57
2022-08-13T21:37:55.888Z,11.80
2022-08-13T21:40:27.157Z,11.85
2022-08-13T21:43:00.755Z,11.38
2022-08-13T21:45:37.727Z,11.68
2022-08-13T21:48:06.349Z,12.88
2022-08-13T21:50:35.728Z,13.88
2022-08-13T21:53:28.279Z,12.63
2022-08-13T21:55:53.860Z,11.95
2022-08-13T21:58:23.094Z,12.27
2022-08-13T22:00:55.759Z,12.43
2022-08-13T22:04:02.032Z,12.60
2022-08-13T22:06:16.728Z,17.90
2022-08-13T22:08:46.508Z,15.25
2022-08-13T22:11:15.174Z,13.82
2022-08-13T22:13:44.255Z,14.30
2022-08-13T22:16:13.212Z,15.65
2022-08-13T22:18:46.182Z,13.95
2022-08-13T22:21:16.502Z,14.10
2022-08-13T22:23:45.592Z,11.88
2022-08-13T22:26:15.714Z,12.55
2022-08-13T22:29:03.385Z,11.65
2022-08-13T22:31:31.731Z,12.32
2022-08-13T22:34:03.677Z,11.13
2022-08-13T22:36:34.866Z,10.73
2022-08-13T22:39:07.605Z,11.85
2022-08-13T22:41:40.757Z,11.38
2022-08-13T22:44:11.549Z,10.85
2022-08-13T22:46:43.843Z,10.45
2022-08-13T22:49:13.110Z,10.30
2022-08-13T22:51:45.487Z,9.70
2022-08-13T22:54:20.763Z,10.00
2022-08-13T22:56:48.346Z,10.68
2022-08-13T22:59:17.513Z,10.00
2022-08-13T23:01:49.055Z,9.63
2022-08-13T23:04:22.187Z,10.25
2022-08-13T23:06:56.794Z,9.75
2022-08-13T23:09:28.262Z,9.60
2022-08-13T23:12:00.874Z,11.10
2022-08-13T23:14:31.904Z,9.57
2022-08-13T23:17:01.844Z,11.07
2022-08-13T23:19:32.844Z,9.70
2022-08-13T23:22:02.726Z,9.45
2022-08-13T23:24:30.538Z,9.48
2022-08-13T23:26:58.708Z,9.40
2022-08-13T23:29:26.036Z,9.32
2022-08-13T23:31:59.000Z,8.85
2022-08-13T23:34:28.612Z,9.32
2022-08-13T23:36:58.417Z,10.60
2022-08-13T23:39:27.391Z,9.35
2022-08-13T23:41:58.531Z,9.02
2022-08-13T23:44:39.475Z,9.65
2022-08-13T23:47:16.452Z,9.57
2022-08-13T23:49:45.227Z,9.30
2022-08-13T23:52:17.217Z,9.00
2022-08-13T23:54:52.271Z,8.38
2022-08-13T23:57:27.740Z,9.10
2022-08-13T23:59:57.884Z,7.82
